sensor_id;sensor_type;location;lat;lon;timestamp;P1;durP1;ratioP1;P2;durP2;ratioP2
7573;SDS011;3828;48.922;9.116;2023-02-28T00:01:32;1.90;;;1.90;;
7573;SDS011;3828;48.922;9.116;2023-02-28T00:03:59;1.80;;;1.80;;
7573;SDS011;3828;48.922;9.116;2023-02-28T00:06:26;1.60;;;1.60;;
7573;SDS011;3828;48.922;9.116;2023-02-28T00:08:53;1.97;;;1.97;;
7573;SDS011;3828;48.922;9.116;2023-02-28T00:11:20;2.00;;;2.00;;
7573;SDS011;3828;48.922;9.116;2023-02-28T00:13:49;1.90;;;1.90;;
7573;SDS011;3828;48.922;9.116;2023-02-28T00:16:16;1.80;;;1.80;;
7573;SDS011;3828;48.922;9.116;2023-02-28T00:18:45;1.93;;;1.93;;
7573;SDS011;3828;48.922;9.116;2023-02-28T00:21:13;1.80;;;1.80;;
7573;SDS011;3828;48.922;9.116;2023-02-28T00:23:40;1.80;;;1.80;;
7573;SDS011;3828;48.922;9.116;2023-02-28T00:26:07;1.80;;;1.80;;
7573;SDS011;3828;48.922;9.116;2023-02-28T00:28:34;2.00;;;2.00;;
7573;SDS011;3828;48.922;9.116;2023-02-28T00:31:02;1.83;;;1.83;;
7573;SDS011;3828;48.922;9.116;2023-02-28T00:33:29;2.00;;;2.00;;
7573;SDS011;3828;48.922;9.116;2023-02-28T00:36:06;1.70;;;1.70;;
7573;SDS011;3828;48.922;9.116;2023-02-28T00:38:34;2.00;;;2.00;;
7573;SDS011;3828;48.922;9.116;2023-02-28T00:41:03;1.73;;;1.73;;
7573;SDS011;3828;48.922;9.116;2023-02-28T00:43:31;1.90;;;1.90;;
7573;SDS011;3828;48.922;9.116;2023-02-28T00:45:58;1.73;;;1.73;;
7573;SDS011;3828;48.922;9.116;2023-02-28T00:48:26;1.77;;;1.77;;
7573;SDS011;3828;48.922;9.116;2023-02-28T00:50:53;1.80;;;1.80;;
7573;SDS011;3828;48.922;9.116;2023-02-28T00:53:20;2.40;;;2.40;;
7573;SDS011;3828;48.922;9.116;2023-02-28T00:55:48;1.77;;;1.77;;
7573;SDS011;3828;48.922;9.116;2023-02-28T00:58:15;2.07;;;2.07;;
7573;SDS011;3828;48.922;9.116;2023-02-28T01:00:42;1.80;;;1.80;;
7573;SDS011;3828;48.922;9.116;2023-02-28T01:03:13;1.90;;;1.90;;
7573;SDS011;3828;48.922;9.116;2023-02-28T01:05:42;1.83;;;1.83;;
7573;SDS011;3828;48.922;9.116;2023-02-28T01:08:09;2.03;;;2.03;;
7573;SDS011;3828;48.922;9.116;2023-02-28T01:10:36;1.80;;;1.80;;
7573;SDS011;3828;48.922;9.116;2023-02-28T01:13:03;1.77;;;1.77;;
7573;SDS011;3828;48.922;9.116;2023-02-28T01:15:33;1.80;;;1.80;;
7573;SDS011;3828;48.922;9.116;2023-02-28T01:17:59;2.00;;;2.00;;
7573;SDS011;3828;48.922;9.116;2023-02-28T01:20:27;2.10;;;2.10;;
7573;SDS011;3828;48.922;9.116;2023-02-28T01:22:55;1.90;;;1.90;;
7573;SDS011;3828;48.922;9.116;2023-02-28T01:25:22;1.70;;;1.70;;
7573;SDS011;3828;48.922;9.116;2023-02-28T01:27:49;1.70;;;1.70;;
7573;SDS011;3828;48.922;9.116;2023-02-28T01:30:16;1.90;;;1.90;;
7573;SDS011;3828;48.922;9.116;2023-02-28T01:32:43;1.80;;;1.80;;
7573;SDS011;3828;48.922;9.116;2023-02-28T01:35:10;1.90;;;1.90;;
7573;SDS011;3828;48.922;9.116;2023-02-28T01:37:37;1.80;;;1.80;;
7573;SDS011;3828;48.922;9.116;2023-02-28T01:40:06;1.90;;;1.90;;
7573;SDS011;3828;48.922;9.116;2023-02-28T01:42:33;1.70;;;1.70;;
7573;SDS011;3828;48.922;9.116;2023-02-28T01:45:02;1.93;;;1.93;;
7573;SDS011;3828;48.922;9.116;2023-02-28T01:47:36;1.80;;;1.80;;
7573;SDS011;3828;48.922;9.116;2023-02-28T01:50:07;2.00;;;2.00;;
7573;SDS011;3828;48.922;9.116;2023-02-28T01:52:38;1.77;;;1.77;;
7573;SDS011;3828;48.922;9.116;2023-02-28T01:55:07;2.20;;;2.20;;
7573;SDS011;3828;48.922;9.116;2023-02-28T01:57:37;1.80;;;1.80;;
7573;SDS011;3828;48.922;9.116;2023-02-28T02:00:08;1.97;;;1.97;;
7573;SDS011;3828;48.922;9.116;2023-02-28T02:02:38;1.80;;;1.80;;
7573;SDS011;3828;48.922;9.116;2023-02-28T02:05:08;2.10;;;2.10;;
7573;SDS011;3828;48.922;9.116;2023-02-28T02:07:39;1.77;;;1.77;;
7573;SDS011;3828;48.922;9.116;2023-02-28T02:10:12;1.70;;;1.70;;
7573;SDS011;3828;48.922;9.116;2023-02-28T02:12:46;1.90;;;1.90;;
7573;SDS011;3828;48.922;9.116;2023-02-28T02:15:28;1.73;;;1.73;;
7573;SDS011;3828;48.922;9.116;2023-02-28T02:18:00;2.00;;;2.00;;
7573;SDS011;3828;48.922;9.116;2023-02-28T02:24:07;1.90;;;1.90;;
7573;SDS011;3828;48.922;9.116;2023-02-28T02:30:02;1.80;;;1.80;;
7573;SDS011;3828;48.922;9.116;2023-02-28T02:35:57;2.00;;;2.00;;
7573;SDS011;3828;48.922;9.116;2023-02-28T02:38:31;1.90;;;1.90;;
7573;SDS011;3828;48.922;9.116;2023-02-28T02:41:03;2.00;;;2.00;;
7573;SDS011;3828;48.922;9.116;2023-02-28T02:43:35;1.90;;;1.90;;
7573;SDS011;3828;48.922;9.116;2023-02-28T02:46:07;2.00;;;2.00;;
7573;SDS011;3828;48.922;9.116;2023-02-28T02:48:38;1.80;;;1.80;;
7573;SDS011;3828;48.922;9.116;2023-02-28T02:51:10;1.90;;;1.90;;
7573;SDS011;3828;48.922;9.116;2023-02-28T02:53:41;2.10;;;2.10;;
7573;SDS011;3828;48.922;9.116;2023-02-28T02:56:14;1.77;;;1.77;;
7573;SDS011;3828;48.922;9.116;2023-02-28T02:58:44;1.80;;;1.80;;
7573;SDS011;3828;48.922;9.116;2023-02-28T03:01:14;1.87;;;1.87;;
7573;SDS011;3828;48.922;9.116;2023-02-28T03:03:52;1.83;;;1.83;;
7573;SDS011;3828;48.922;9.116;2023-02-28T03:06:22;1.60;;;1.60;;
7573;SDS011;3828;48.922;9.116;2023-02-28T03:08:49;1.67;;;1.67;;
7573;SDS011;3828;48.922;9.116;2023-02-28T03:11:16;2.17;;;2.17;;
7573;SDS011;3828;48.922;9.116;2023-02-28T03:13:52;1.70;;;1.70;;
7573;SDS011;3828;48.922;9.116;2023-02-28T03:16:54;1.80;;;1.80;;
7573;SDS011;3828;48.922;9.116;2023-02-28T03:19:33;1.80;;;1.80;;
7573;SDS011;3828;48.922;9.116;2023-02-28T03:22:14;1.90;;;1.90;;
7573;SDS011;3828;48.922;9.116;2023-02-28T03:24:51;1.83;;;1.83;;
7573;SDS011;3828;48.922;9.116;2023-02-28T03:27:24;1.80;;;1.80;;
7573;SDS011;3828;48.922;9.116;2023-02-28T03:29:57;2.20;;;2.20;;
7573;SDS011;3828;48.922;9.116;2023-02-28T03:32:28;1.83;;;1.83;;
7573;SDS011;3828;48.922;9.116;2023-02-28T03:35:00;1.87;;;1.87;;
7573;SDS011;3828;48.922;9.116;2023-02-28T03:37:33;1.97;;;1.97;;
7573;SDS011;3828;48.922;9.116;2023-02-28T03:40:04;1.80;;;1.80;;
7573;SDS011;3828;48.922;9.116;2023-02-28T03:42:36;2.00;;;2.00;;
7573;SDS011;3828;48.922;9.116;2023-02-28T03:45:08;1.97;;;1.97;;
7573;SDS011;3828;48.922;9.116;2023-02-28T03:47:39;1.70;;;1.70;;
7573;SDS011;3828;48.922;9.116;2023-02-28T03:50:12;1.93;;;1.93;;
7573;SDS011;3828;48.922;9.116;2023-02-28T03:52:46;1.87;;;1.87;;
7573;SDS011;3828;48.922;9.116;2023-02-28T03:55:16;1.60;;;1.60;;
7573;SDS011;3828;48.922;9.116;2023-02-28T03:57:46;2.07;;;2.07;;
7573;SDS011;3828;48.922;9.116;2023-02-28T04:00:24;2.00;;;2.00;;
7573;SDS011;3828;48.922;9.116;2023-02-28T04:02:54;2.00;;;2.00;;
7573;SDS011;3828;48.922;9.116;2023-02-28T04:05:21;1.40;;;1.40;;
7573;SDS011;3828;48.922;9.116;2023-02-28T04:07:50;1.70;;;1.70;;
7573;SDS011;3828;48.922;9.116;2023-02-28T04:10:17;1.90;;;1.90;;
7573;SDS011;3828;48.922;9.116;2023-02-28T04:12:44;1.80;;;1.80;;
7573;SDS011;3828;48.922;9.116;2023-02-28T04:15:12;1.73;;;1.73;;
7573;SDS011;3828;48.922;9.116;2023-02-28T04:17:38;1.67;;;1.67;;
7573;SDS011;3828;48.922;9.116;2023-02-28T04:20:06;1.90;;;1.90;;
7573;SDS011;3828;48.922;9.116;2023-02-28T04:22:36;1.90;;;1.90;;
7573;SDS011;3828;48.922;9.116;2023-02-28T04:25:07;1.87;;;1.87;;
7573;SDS011;3828;48.922;9.116;2023-02-28T04:27:34;1.70;;;1.70;;
7573;SDS011;3828;48.922;9.116;2023-02-28T04:30:01;1.90;;;1.90;;
7573;SDS011;3828;48.922;9.116;2023-02-28T04:32:28;1.90;;;1.90;;
7573;SDS011;3828;48.922;9.116;2023-02-28T04:34:55;2.00;;;2.00;;
7573;SDS011;3828;48.922;9.116;2023-02-28T04:37:22;2.07;;;2.07;;
7573;SDS011;3828;48.922;9.116;2023-02-28T04:39:53;2.00;;;2.00;;
7573;SDS011;3828;48.922;9.116;2023-02-28T04:42:22;1.70;;;1.70;;
7573;SDS011;3828;48.922;9.116;2023-02-28T04:44:48;1.80;;;1.80;;
7573;SDS011;3828;48.922;9.116;2023-02-28T04:47:16;1.60;;;1.60;;
7573;SDS011;3828;48.922;9.116;2023-02-28T04:49:42;2.00;;;2.00;;
7573;SDS011;3828;48.922;9.116;2023-02-28T04:52:09;1.67;;;1.67;;
7573;SDS011;3828;48.922;9.116;2023-02-28T04:54:38;2.00;;;2.00;;
7573;SDS011;3828;48.922;9.116;2023-02-28T04:57:05;2.03;;;2.03;;
7573;SDS011;3828;48.922;9.116;2023-02-28T04:59:33;1.77;;;1.77;;
7573;SDS011;3828;48.922;9.116;2023-02-28T05:02:00;1.80;;;1.80;;
7573;SDS011;3828;48.922;9.116;2023-02-28T05:04:31;1.93;;;1.93;;
7573;SDS011;3828;48.922;9.116;2023-02-28T05:06:59;1.80;;;1.80;;
7573;SDS011;3828;48.922;9.116;2023-02-28T05:09:26;1.80;;;1.80;;
7573;SDS011;3828;48.922;9.116;2023-02-28T05:11:54;1.70;;;1.70;;
7573;SDS011;3828;48.922;9.116;2023-02-28T05:14:22;1.90;;;1.90;;
7573;SDS011;3828;48.922;9.116;2023-02-28T05:16:50;1.57;;;1.57;;
7573;SDS011;3828;48.922;9.116;2023-02-28T05:19:17;1.70;;;1.70;;
7573;SDS011;3828;48.922;9.116;2023-02-28T05:21:48;1.50;;;1.50;;
7573;SDS011;3828;48.922;9.116;2023-02-28T05:24:17;1.67;;;1.67;;
7573;SDS011;3828;48.922;9.116;2023-02-28T05:26:48;1.73;;;1.73;;
7573;SDS011;3828;48.922;9.116;2023-02-28T05:29:16;1.90;;;1.90;;
7573;SDS011;3828;48.922;9.116;2023-02-28T05:31:43;1.80;;;1.80;;
7573;SDS011;3828;48.922;9.116;2023-02-28T05:34:11;1.90;;;1.90;;
7573;SDS011;3828;48.922;9.116;2023-02-28T05:36:40;1.80;;;1.80;;
7573;SDS011;3828;48.922;9.116;2023-02-28T05:39:07;1.80;;;1.80;;
7573;SDS011;3828;48.922;9.116;2023-02-28T05:41:37;1.90;;;1.90;;
7573;SDS011;3828;48.922;9.116;2023-02-28T05:44:05;1.77;;;1.77;;
7573;SDS011;3828;48.922;9.116;2023-02-28T05:46:32;1.80;;;1.80;;
7573;SDS011;3828;48.922;9.116;2023-02-28T05:48:59;2.20;;;2.20;;
7573;SDS011;3828;48.922;9.116;2023-02-28T05:51:27;1.70;;;1.70;;
7573;SDS011;3828;48.922;9.116;2023-02-28T05:53:57;1.80;;;1.80;;
7573;SDS011;3828;48.922;9.116;2023-02-28T05:56:25;1.73;;;1.73;;
7573;SDS011;3828;48.922;9.116;2023-02-28T05:58:52;1.90;;;1.90;;
7573;SDS011;3828;48.922;9.116;2023-02-28T06:01:20;2.10;;;2.10;;
7573;SDS011;3828;48.922;9.116;2023-02-28T06:03:58;1.80;;;1.80;;
7573;SDS011;3828;48.922;9.116;2023-02-28T06:06:30;2.20;;;2.20;;
7573;SDS011;3828;48.922;9.116;2023-02-28T06:08:59;1.90;;;1.90;;
7573;SDS011;3828;48.922;9.116;2023-02-28T06:11:26;2.00;;;2.00;;
7573;SDS011;3828;48.922;9.116;2023-02-28T06:13:53;1.87;;;1.87;;
7573;SDS011;3828;48.922;9.116;2023-02-28T06:16:21;1.57;;;1.57;;
7573;SDS011;3828;48.922;9.116;2023-02-28T06:18:48;1.97;;;1.97;;
7573;SDS011;3828;48.922;9.116;2023-02-28T06:21:15;1.87;;;1.87;;
7573;SDS011;3828;48.922;9.116;2023-02-28T06:23:43;1.80;;;1.80;;
7573;SDS011;3828;48.922;9.116;2023-02-28T06:26:10;1.60;;;1.60;;
7573;SDS011;3828;48.922;9.116;2023-02-28T06:28:37;1.80;;;1.80;;
7573;SDS011;3828;48.922;9.116;2023-02-28T06:31:07;2.00;;;2.00;;
7573;SDS011;3828;48.922;9.116;2023-02-28T06:33:38;1.73;;;1.73;;
7573;SDS011;3828;48.922;9.116;2023-02-28T06:36:06;1.97;;;1.97;;
7573;SDS011;3828;48.922;9.116;2023-02-28T06:38:33;1.60;;;1.60;;
7573;SDS011;3828;48.922;9.116;2023-02-28T06:41:02;2.20;;;2.20;;
7573;SDS011;3828;48.922;9.116;2023-02-28T06:43:31;1.60;;;1.60;;
7573;SDS011;3828;48.922;9.116;2023-02-28T06:45:59;1.87;;;1.87;;
7573;SDS011;3828;48.922;9.116;2023-02-28T06:48:27;1.70;;;1.70;;
7573;SDS011;3828;48.922;9.116;2023-02-28T06:51:02;1.80;;;1.80;;
7573;SDS011;3828;48.922;9.116;2023-02-28T06:53:30;1.83;;;1.83;;
7573;SDS011;3828;48.922;9.116;2023-02-28T06:55:57;1.87;;;1.87;;
7573;SDS011;3828;48.922;9.116;2023-02-28T06:58:25;1.70;;;1.70;;
7573;SDS011;3828;48.922;9.116;2023-02-28T07:00:52;1.93;;;1.93;;
7573;SDS011;3828;48.922;9.116;2023-02-28T07:03:19;1.80;;;1.80;;
7573;SDS011;3828;48.922;9.116;2023-02-28T07:05:46;1.60;;;1.60;;
7573;SDS011;3828;48.922;9.116;2023-02-28T07:08:13;1.80;;;1.80;;
7573;SDS011;3828;48.922;9.116;2023-02-28T07:10:40;1.90;;;1.90;;
7573;SDS011;3828;48.922;9.116;2023-02-28T07:13:07;1.87;;;1.87;;
7573;SDS011;3828;48.922;9.116;2023-02-28T07:15:36;1.77;;;1.77;;
7573;SDS011;3828;48.922;9.116;2023-02-28T07:18:03;1.70;;;1.70;;
7573;SDS011;3828;48.922;9.116;2023-02-28T07:20:31;1.83;;;1.83;;
7573;SDS011;3828;48.922;9.116;2023-02-28T07:22:57;1.53;;;1.53;;
7573;SDS011;3828;48.922;9.116;2023-02-28T07:25:24;1.93;;;1.93;;
7573;SDS011;3828;48.922;9.116;2023-02-28T07:27:53;1.80;;;1.80;;
7573;SDS011;3828;48.922;9.116;2023-02-28T07:30:21;2.00;;;2.00;;
7573;SDS011;3828;48.922;9.116;2023-02-28T07:32:49;1.67;;;1.67;;
7573;SDS011;3828;48.922;9.116;2023-02-28T07:35:16;1.90;;;1.90;;
7573;SDS011;3828;48.922;9.116;2023-02-28T07:37:44;1.77;;;1.77;;
7573;SDS011;3828;48.922;9.116;2023-02-28T07:40:12;1.67;;;1.67;;
7573;SDS011;3828;48.922;9.116;2023-02-28T07:42:40;1.70;;;1.70;;
7573;SDS011;3828;48.922;9.116;2023-02-28T07:45:08;2.00;;;2.00;;
7573;SDS011;3828;48.922;9.116;2023-02-28T07:47:37;1.70;;;1.70;;
7573;SDS011;3828;48.922;9.116;2023-02-28T07:50:06;1.80;;;1.80;;
7573;SDS011;3828;48.922;9.116;2023-02-28T07:52:35;1.70;;;1.70;;
7573;SDS011;3828;48.922;9.116;2023-02-28T07:55:03;1.90;;;1.90;;
7573;SDS011;3828;48.922;9.116;2023-02-28T07:57:30;1.80;;;1.80;;
7573;SDS011;3828;48.922;9.116;2023-02-28T07:59:58;1.90;;;1.90;;
7573;SDS011;3828;48.922;9.116;2023-02-28T08:02:24;1.70;;;1.70;;
7573;SDS011;3828;48.922;9.116;2023-02-28T08:04:52;1.90;;;1.90;;
7573;SDS011;3828;48.922;9.116;2023-02-28T08:07:20;1.80;;;1.80;;
7573;SDS011;3828;48.922;9.116;2023-02-28T08:09:47;1.57;;;1.57;;
7573;SDS011;3828;48.922;9.116;2023-02-28T08:12:13;1.60;;;1.60;;
7573;SDS011;3828;48.922;9.116;2023-02-28T08:14:40;1.80;;;1.80;;
7573;SDS011;3828;48.922;9.116;2023-02-28T08:17:07;1.70;;;1.70;;
7573;SDS011;3828;48.922;9.116;2023-02-28T08:19:34;1.70;;;1.70;;
7573;SDS011;3828;48.922;9.116;2023-02-28T08:22:01;1.80;;;1.80;;
7573;SDS011;3828;48.922;9.116;2023-02-28T08:24:29;1.90;;;1.90;;
7573;SDS011;3828;48.922;9.116;2023-02-28T08:26:56;1.70;;;1.70;;
7573;SDS011;3828;48.922;9.116;2023-02-28T08:29:23;1.90;;;1.90;;
7573;SDS011;3828;48.922;9.116;2023-02-28T08:31:49;1.73;;;1.73;;
7573;SDS011;3828;48.922;9.116;2023-02-28T08:34:16;1.70;;;1.70;;
7573;SDS011;3828;48.922;9.116;2023-02-28T08:36:43;1.57;;;1.57;;
7573;SDS011;3828;48.922;9.116;2023-02-28T08:39:11;1.60;;;1.60;;
7573;SDS011;3828;48.922;9.116;2023-02-28T08:41:39;1.70;;;1.70;;
7573;SDS011;3828;48.922;9.116;2023-02-28T08:44:13;1.80;;;1.80;;
7573;SDS011;3828;48.922;9.116;2023-02-28T08:46:41;1.40;;;1.40;;
7573;SDS011;3828;48.922;9.116;2023-02-28T08:49:10;1.80;;;1.80;;
7573;SDS011;3828;48.922;9.116;2023-02-28T08:51:38;1.90;;;1.90;;
7573;SDS011;3828;48.922;9.116;2023-02-28T08:54:10;1.73;;;1.73;;
7573;SDS011;3828;48.922;9.116;2023-02-28T08:56:41;1.70;;;1.70;;
7573;SDS011;3828;48.922;9.116;2023-02-28T08:59:11;1.60;;;1.60;;
7573;SDS011;3828;48.922;9.116;2023-02-28T09:01:38;1.80;;;1.80;;
7573;SDS011;3828;48.922;9.116;2023-02-28T09:04:11;1.60;;;1.60;;
7573;SDS011;3828;48.922;9.116;2023-02-28T09:06:38;1.90;;;1.90;;
7573;SDS011;3828;48.922;9.116;2023-02-28T09:09:07;1.60;;;1.60;;
7573;SDS011;3828;48.922;9.116;2023-02-28T09:11:37;1.50;;;1.50;;
7573;SDS011;3828;48.922;9.116;2023-02-28T09:14:07;1.70;;;1.70;;
7573;SDS011;3828;48.922;9.116;2023-02-28T09:16:35;1.80;;;1.80;;
7573;SDS011;3828;48.922;9.116;2023-02-28T09:19:05;1.93;;;1.93;;
7573;SDS011;3828;48.922;9.116;2023-02-28T09:21:36;1.40;;;1.40;;
7573;SDS011;3828;48.922;9.116;2023-02-28T09:24:04;1.70;;;1.70;;
7573;SDS011;3828;48.922;9.116;2023-02-28T09:26:32;1.47;;;1.47;;
7573;SDS011;3828;48.922;9.116;2023-02-28T09:29:02;1.80;;;1.80;;
7573;SDS011;3828;48.922;9.116;2023-02-28T09:31:34;1.60;;;1.60;;
7573;SDS011;3828;48.922;9.116;2023-02-28T09:34:06;1.67;;;1.67;;
7573;SDS011;3828;48.922;9.116;2023-02-28T09:36:34;1.50;;;1.50;;
7573;SDS011;3828;48.922;9.116;2023-02-28T09:39:03;1.60;;;1.60;;
7573;SDS011;3828;48.922;9.116;2023-02-28T09:41:37;1.50;;;1.50;;
7573;SDS011;3828;48.922;9.116;2023-02-28T09:44:13;1.80;;;1.80;;
7573;SDS011;3828;48.922;9.116;2023-02-28T09:46:49;1.60;;;1.60;;
7573;SDS011;3828;48.922;9.116;2023-02-28T09:49:25;2.03;;;2.03;;
7573;SDS011;3828;48.922;9.116;2023-02-28T09:52:02;1.40;;;1.40;;
7573;SDS011;3828;48.922;9.116;2023-02-28T09:54:35;1.80;;;1.80;;
7573;SDS011;3828;48.922;9.116;2023-02-28T09:57:08;1.60;;;1.60;;
7573;SDS011;3828;48.922;9.116;2023-02-28T09:59:46;1.60;;;1.60;;
7573;SDS011;3828;48.922;9.116;2023-02-28T10:05:43;1.70;;;1.70;;
7573;SDS011;3828;48.922;9.116;2023-02-28T10:08:19;1.90;;;1.90;;
7573;SDS011;3828;48.922;9.116;2023-02-28T10:10:51;1.50;;;1.50;;
7573;SDS011;3828;48.922;9.116;2023-02-28T10:13:27;1.50;;;1.50;;
7573;SDS011;3828;48.922;9.116;2023-02-28T10:16:04;1.77;;;1.77;;
7573;SDS011;3828;48.922;9.116;2023-02-28T10:18:38;1.70;;;1.70;;
7573;SDS011;3828;48.922;9.116;2023-02-28T10:21:19;1.57;;;1.57;;
7573;SDS011;3828;48.922;9.116;2023-02-28T10:23:53;1.77;;;1.77;;
7573;SDS011;3828;48.922;9.116;2023-02-28T10:26:30;1.70;;;1.70;;
7573;SDS011;3828;48.922;9.116;2023-02-28T10:28:59;1.80;;;1.80;;
7573;SDS011;3828;48.922;9.116;2023-02-28T10:31:27;1.70;;;1.70;;
7573;SDS011;3828;48.922;9.116;2023-02-28T10:34:02;1.37;;;1.37;;
7573;SDS011;3828;48.922;9.116;2023-02-28T10:36:33;1.47;;;1.47;;
7573;SDS011;3828;48.922;9.116;2023-02-28T10:39:03;1.50;;;1.50;;
7573;SDS011;3828;48.922;9.116;2023-02-28T10:42:05;1.60;;;1.60;;
7573;SDS011;3828;48.922;9.116;2023-02-28T10:44:47;1.50;;;1.50;;
7573;SDS011;3828;48.922;9.116;2023-02-28T10:47:18;1.30;;;1.30;;
7573;SDS011;3828;48.922;9.116;2023-02-28T10:49:46;1.57;;;1.57;;
7573;SDS011;3828;48.922;9.116;2023-02-28T10:52:15;1.50;;;1.50;;
7573;SDS011;3828;48.922;9.116;2023-02-28T10:55:13;1.40;;;1.40;;
7573;SDS011;3828;48.922;9.116;2023-02-28T10:57:45;1.60;;;1.60;;
7573;SDS011;3828;48.922;9.116;2023-02-28T11:00:14;1.60;;;1.60;;
7573;SDS011;3828;48.922;9.116;2023-02-28T11:02:46;1.53;;;1.53;;
7573;SDS011;3828;48.922;9.116;2023-02-28T11:05:24;1.33;;;1.33;;
7573;SDS011;3828;48.922;9.116;2023-02-28T11:07:55;1.50;;;1.50;;
7573;SDS011;3828;48.922;9.116;2023-02-28T11:10:26;1.50;;;1.50;;
7573;SDS011;3828;48.922;9.116;2023-02-28T11:12:57;1.20;;;1.20;;
7573;SDS011;3828;48.922;9.116;2023-02-28T11:15:25;1.60;;;1.60;;
7573;SDS011;3828;48.922;9.116;2023-02-28T11:17:54;1.10;;;1.10;;
7573;SDS011;3828;48.922;9.116;2023-02-28T11:20:23;1.20;;;1.20;;
7573;SDS011;3828;48.922;9.116;2023-02-28T11:22:51;1.00;;;1.00;;
7573;SDS011;3828;48.922;9.116;2023-02-28T11:25:21;1.20;;;1.20;;
7573;SDS011;3828;48.922;9.116;2023-02-28T11:27:51;1.30;;;1.30;;
7573;SDS011;3828;48.922;9.116;2023-02-28T11:30:30;1.20;;;1.20;;
7573;SDS011;3828;48.922;9.116;2023-02-28T11:33:18;1.27;;;1.27;;
7573;SDS011;3828;48.922;9.116;2023-02-28T11:35:52;1.20;;;1.20;;
7573;SDS011;3828;48.922;9.116;2023-02-28T11:38:23;1.10;;;1.10;;
7573;SDS011;3828;48.922;9.116;2023-02-28T11:40:55;1.10;;;1.10;;
7573;SDS011;3828;48.922;9.116;2023-02-28T11:43:35;1.10;;;1.10;;
7573;SDS011;3828;48.922;9.116;2023-02-28T11:46:14;1.30;;;1.30;;
7573;SDS011;3828;48.922;9.116;2023-02-28T11:48:49;1.00;;;1.00;;
7573;SDS011;3828;48.922;9.116;2023-02-28T11:51:25;1.00;;;1.00;;
7573;SDS011;3828;48.922;9.116;2023-02-28T11:54:10;1.00;;;1.00;;
7573;SDS011;3828;48.922;9.116;2023-02-28T11:56:55;1.00;;;1.00;;
7573;SDS011;3828;48.922;9.116;2023-02-28T11:59:32;1.10;;;1.10;;
7573;SDS011;3828;48.922;9.116;2023-02-28T12:02:18;1.00;;;1.00;;
7573;SDS011;3828;48.922;9.116;2023-02-28T12:04:52;1.13;;;1.13;;
7573;SDS011;3828;48.922;9.116;2023-02-28T12:07:29;1.20;;;1.20;;
7573;SDS011;3828;48.922;9.116;2023-02-28T12:10:03;1.00;;;1.00;;
7573;SDS011;3828;48.922;9.116;2023-02-28T12:12:42;1.00;;;1.00;;
7573;SDS011;3828;48.922;9.116;2023-02-28T12:15:26;1.10;;;1.10;;
7573;SDS011;3828;48.922;9.116;2023-02-28T12:20:57;1.00;;;1.00;;
7573;SDS011;3828;48.922;9.116;2023-02-28T12:23:40;1.10;;;1.10;;
7573;SDS011;3828;48.922;9.116;2023-02-28T12:26:23;1.00;;;1.00;;
7573;SDS011;3828;48.922;9.116;2023-02-28T12:29:04;0.77;;;0.77;;
7573;SDS011;3828;48.922;9.116;2023-02-28T12:31:38;0.80;;;0.80;;
7573;SDS011;3828;48.922;9.116;2023-02-28T12:34:10;0.70;;;0.70;;
7573;SDS011;3828;48.922;9.116;2023-02-28T12:36:41;0.70;;;0.70;;
7573;SDS011;3828;48.922;9.116;2023-02-28T12:39:13;0.70;;;0.70;;
7573;SDS011;3828;48.922;9.116;2023-02-28T12:41:48;0.70;;;0.70;;
7573;SDS011;3828;48.922;9.116;2023-02-28T12:44:21;0.80;;;0.80;;
7573;SDS011;3828;48.922;9.116;2023-02-28T12:46:56;0.70;;;0.70;;
7573;SDS011;3828;48.922;9.116;2023-02-28T12:49:29;0.70;;;0.70;;
7573;SDS011;3828;48.922;9.116;2023-02-28T12:52:06;0.90;;;0.90;;
7573;SDS011;3828;48.922;9.116;2023-02-28T12:54:40;0.80;;;0.80;;
7573;SDS011;3828;48.922;9.116;2023-02-28T12:57:14;0.70;;;0.70;;
7573;SDS011;3828;48.922;9.116;2023-02-28T12:59:51;0.80;;;0.80;;
7573;SDS011;3828;48.922;9.116;2023-02-28T13:02:33;0.70;;;0.70;;
7573;SDS011;3828;48.922;9.116;2023-02-28T13:11:27;0.80;;;0.80;;
7573;SDS011;3828;48.922;9.116;2023-02-28T13:13:57;0.83;;;0.83;;
7573;SDS011;3828;48.922;9.116;2023-02-28T13:16:26;0.80;;;0.80;;
7573;SDS011;3828;48.922;9.116;2023-02-28T13:18:56;1.07;;;1.07;;
7573;SDS011;3828;48.922;9.116;2023-02-28T13:21:41;1.17;;;1.17;;
7573;SDS011;3828;48.922;9.116;2023-02-28T13:24:09;0.77;;;0.77;;
7573;SDS011;3828;48.922;9.116;2023-02-28T13:29:42;0.73;;;0.73;;
7573;SDS011;3828;48.922;9.116;2023-02-28T13:44:08;0.70;;;0.70;;
7573;SDS011;3828;48.922;9.116;2023-02-28T13:46:38;0.83;;;0.83;;
7573;SDS011;3828;48.922;9.116;2023-02-28T13:49:43;1.00;;;1.00;;
7573;SDS011;3828;48.922;9.116;2023-02-28T13:52:11;1.00;;;1.00;;
7573;SDS011;3828;48.922;9.116;2023-02-28T13:54:45;0.90;;;0.90;;
7573;SDS011;3828;48.922;9.116;2023-02-28T13:57:42;1.37;;;1.37;;
7573;SDS011;3828;48.922;9.116;2023-02-28T14:00:21;1.23;;;1.23;;
7573;SDS011;3828;48.922;9.116;2023-02-28T14:03:18;0.70;;;0.70;;
7573;SDS011;3828;48.922;9.116;2023-02-28T14:06:09;0.70;;;0.70;;
7573;SDS011;3828;48.922;9.116;2023-02-28T14:08:45;0.70;;;0.70;;
7573;SDS011;3828;48.922;9.116;2023-02-28T14:11:26;0.53;;;0.53;;
7573;SDS011;3828;48.922;9.116;2023-02-28T14:13:56;0.83;;;0.83;;
7573;SDS011;3828;48.922;9.116;2023-02-28T14:16:23;0.80;;;0.80;;
7573;SDS011;3828;48.922;9.116;2023-02-28T14:18:55;0.90;;;0.90;;
7573;SDS011;3828;48.922;9.116;2023-02-28T14:21:26;0.70;;;0.70;;
7573;SDS011;3828;48.922;9.116;2023-02-28T14:27:11;1.20;;;1.20;;
7573;SDS011;3828;48.922;9.116;2023-02-28T14:30:15;0.80;;;0.80;;
7573;SDS011;3828;48.922;9.116;2023-02-28T14:33:08;1.20;;;1.20;;
7573;SDS011;3828;48.922;9.116;2023-02-28T14:35:50;0.90;;;0.90;;
7573;SDS011;3828;48.922;9.116;2023-02-28T14:38:31;0.80;;;0.80;;
7573;SDS011;3828;48.922;9.116;2023-02-28T14:41:03;0.90;;;0.90;;
7573;SDS011;3828;48.922;9.116;2023-02-28T14:43:32;0.80;;;0.80;;
7573;SDS011;3828;48.922;9.116;2023-02-28T14:46:00;1.17;;;1.17;;
7573;SDS011;3828;48.922;9.116;2023-02-28T14:48:29;0.70;;;0.70;;
7573;SDS011;3828;48.922;9.116;2023-02-28T14:50:57;0.70;;;0.70;;
7573;SDS011;3828;48.922;9.116;2023-02-28T14:53:27;0.90;;;0.90;;
7573;SDS011;3828;48.922;9.116;2023-02-28T14:55:57;0.77;;;0.77;;
7573;SDS011;3828;48.922;9.116;2023-02-28T14:58:26;1.00;;;1.00;;
7573;SDS011;3828;48.922;9.116;2023-02-28T15:00:54;0.97;;;0.97;;
7573;SDS011;3828;48.922;9.116;2023-02-28T15:03:23;0.77;;;0.77;;
7573;SDS011;3828;48.922;9.116;2023-02-28T15:05:56;0.80;;;0.80;;
7573;SDS011;3828;48.922;9.116;2023-02-28T15:08:24;0.80;;;0.80;;
7573;SDS011;3828;48.922;9.116;2023-02-28T15:10:55;0.97;;;0.97;;
7573;SDS011;3828;48.922;9.116;2023-02-28T15:13:26;0.70;;;0.70;;
7573;SDS011;3828;48.922;9.116;2023-02-28T15:16:02;0.80;;;0.80;;
7573;SDS011;3828;48.922;9.116;2023-02-28T15:18:32;0.80;;;0.80;;
7573;SDS011;3828;48.922;9.116;2023-02-28T15:21:08;0.67;;;0.67;;
7573;SDS011;3828;48.922;9.116;2023-02-28T15:23:39;0.97;;;0.97;;
7573;SDS011;3828;48.922;9.116;2023-02-28T15:26:11;0.80;;;0.80;;
7573;SDS011;3828;48.922;9.116;2023-02-28T15:28:41;0.90;;;0.90;;
7573;SDS011;3828;48.922;9.116;2023-02-28T15:31:17;0.90;;;0.90;;
7573;SDS011;3828;48.922;9.116;2023-02-28T15:33:52;0.80;;;0.80;;
7573;SDS011;3828;48.922;9.116;2023-02-28T15:36:19;0.90;;;0.90;;
7573;SDS011;3828;48.922;9.116;2023-02-28T15:38:50;0.93;;;0.93;;
7573;SDS011;3828;48.922;9.116;2023-02-28T15:41:23;0.80;;;0.80;;
7573;SDS011;3828;48.922;9.116;2023-02-28T15:46:41;1.07;;;1.07;;
7573;SDS011;3828;48.922;9.116;2023-02-28T15:49:12;0.80;;;0.80;;
7573;SDS011;3828;48.922;9.116;2023-02-28T15:51:43;0.73;;;0.73;;
7573;SDS011;3828;48.922;9.116;2023-02-28T15:54:12;0.80;;;0.80;;
7573;SDS011;3828;48.922;9.116;2023-02-28T15:56:44;0.90;;;0.90;;
7573;SDS011;3828;48.922;9.116;2023-02-28T15:59:14;0.90;;;0.90;;
7573;SDS011;3828;48.922;9.116;2023-02-28T16:01:44;0.80;;;0.80;;
7573;SDS011;3828;48.922;9.116;2023-02-28T16:04:13;0.93;;;0.93;;
7573;SDS011;3828;48.922;9.116;2023-02-28T16:06:41;0.90;;;0.90;;
7573;SDS011;3828;48.922;9.116;2023-02-28T16:09:10;1.00;;;1.00;;
7573;SDS011;3828;48.922;9.116;2023-02-28T16:11:40;1.00;;;1.00;;
7573;SDS011;3828;48.922;9.116;2023-02-28T16:14:15;1.00;;;1.00;;
7573;SDS011;3828;48.922;9.116;2023-02-28T16:16:44;0.90;;;0.90;;
7573;SDS011;3828;48.922;9.116;2023-02-28T16:19:12;1.30;;;1.30;;
7573;SDS011;3828;48.922;9.116;2023-02-28T16:21:39;1.10;;;1.10;;
7573;SDS011;3828;48.922;9.116;2023-02-28T16:24:07;1.30;;;1.30;;